Time;durP1;ratioP1;P1;durP2;ratioP2;P2;SDS_P1;SDS_P2;PMS_P1;PMS_P2;Temp;Humidity;BMP_temperature;BMP_pressure;BME280_temperature;BME280_humidity;BME280_pressure;Samples;Min_cycle;Max_cycle;Signal;HPM_P1;HPM_P2
2022/07/29 00:01:52;;;;;;;3.10;0.40;;;15.40;99.90;;;;;;5010384;28;20131;-74
2022/07/29 00:04:19;;;;;;;2.03;0.32;;;15.40;99.90;;;;;;5012340;28;20080;-70
2022/07/29 00:06:45;;;;;;;2.88;0.25;;;15.40;99.90;;;;;;5013341;28;20086;-70
2022/07/29 00:09:11;;;;;;;4.25;0.30;;;15.40;99.90;;;;;;5011577;28;20160;-70
2022/07/29 00:11:36;;;;;;;4.30;0.73;;;15.40;99.90;;;;;;5010918;28;20060;-71
2022/07/29 00:14:02;;;;;;;1.80;0.32;;;15.40;99.90;;;;;;5009878;28;20796;-70
2022/07/29 00:16:28;;;;;;;2.38;0.30;;;15.40;99.90;;;;;;5012925;28;21061;-70
2022/07/29 00:18:54;;;;;;;3.30;0.38;;;15.40;99.90;;;;;;5010814;28;20124;-70
2022/07/29 00:21:19;;;;;;;3.55;0.40;;;15.40;99.90;;;;;;5013891;28;20909;-70
2022/07/29 00:23:45;;;;;;;4.05;0.38;;;15.40;99.90;;;;;;5011170;28;20067;-69
2022/07/29 00:26:11;;;;;;;3.10;0.65;;;15.30;99.90;;;;;;5012602;28;20045;-70
2022/07/29 00:28:36;;;;;;;3.15;0.30;;;15.30;99.90;;;;;;5011867;28;20140;-70
2022/07/29 00:31:02;;;;;;;4.95;0.85;;;15.40;99.90;;;;;;5011209;28;20037;-70
2022/07/29 00:33:28;;;;;;;3.55;0.38;;;15.40;99.90;;;;;;5012603;28;20502;-70
2022/07/29 00:35:54;;;;;;;5.63;0.30;;;15.40;99.90;;;;;;5010113;28;20064;-70
2022/07/29 00:38:20;;;;;;;2.60;0.40;;;15.30;99.90;;;;;;5013087;28;20527;-70
2022/07/29 00:40:46;;;;;;;1.98;0.30;;;15.30;99.90;;;;;;5018516;28;20068;-69
2022/07/29 00:43:14;;;;;;;1.52;0.30;;;15.30;99.90;;;;;;5016641;28;20041;-70
2022/07/29 00:45:40;;;;;;;2.15;0.40;;;15.30;99.90;;;;;;5017167;28;20049;-70
2022/07/29 00:48:08;;;;;;;2.30;0.40;;;15.20;99.90;;;;;;5015771;28;20045;-70
2022/07/29 00:50:34;;;;;;;2.17;0.50;;;15.30;99.90;;;;;;5017524;28;20145;-69
2022/07/29 00:53:01;;;;;;;5.00;0.60;;;15.20;99.90;;;;;;5015968;28;20500;-69
2022/07/29 00:55:28;;;;;;;2.80;0.30;;;15.20;99.90;;;;;;5015521;28;20453;-70
2022/07/29 00:57:55;;;;;;;2.45;0.45;;;15.30;99.90;;;;;;5017500;28;20029;-73
2022/07/29 01:00:24;;;;;;;2.70;0.40;;;15.20;99.90;;;;;;5015822;28;20123;-69
2022/07/29 01:02:50;;;;;;;1.48;0.40;;;15.20;99.90;;;;;;5017169;28;20543;-71
2022/07/29 01:05:22;;;;;;;3.15;0.50;;;15.20;99.90;;;;;;5026810;28;20033;-68
2022/07/29 01:07:51;;;;;;;3.43;0.40;;;15.20;99.90;;;;;;5015705;28;20107;-70
2022/07/29 01:10:19;;;;;;;3.88;0.60;;;15.20;99.90;;;;;;5015186;28;20579;-71
2022/07/29 01:12:47;;;;;;;3.58;0.40;;;15.20;99.90;;;;;;5016689;28;20057;-71
2022/07/29 01:15:13;;;;;;;2.00;0.50;;;15.20;99.90;;;;;;5008828;28;20053;-72
2022/07/29 01:17:45;;;;;;;4.15;0.45;;;15.20;99.90;;;;;;5017042;28;20041;-70
2022/07/29 01:20:26;;;;;;;1.83;0.50;;;15.20;99.90;;;;;;5015617;28;20045;-70
2022/07/29 01:22:58;;;;;;;2.50;0.50;;;15.30;99.90;;;;;;5013610;28;20037;-70
2022/07/29 01:25:51;;;;;;;2.83;0.40;;;15.30;99.90;;;;;;5015434;28;20144;-70
2022/07/29 01:28:35;;;;;;;3.97;0.43;;;15.20;99.90;;;;;;5015164;28;20104;-70
2022/07/29 01:31:04;;;;;;;5.22;0.57;;;15.20;99.90;;;;;;5016301;28;20037;-70
2022/07/29 01:33:48;;;;;;;3.58;0.47;;;15.30;99.90;;;;;;5015285;28;20049;-71
2022/07/29 01:36:18;;;;;;;5.13;0.50;;;15.20;99.90;;;;;;5017087;28;20038;-70
2022/07/29 01:38:50;;;;;;;3.58;0.60;;;15.20;99.90;;;;;;5014963;28;20110;-69
2022/07/29 01:41:19;;;;;;;5.43;0.55;;;15.20;99.90;;;;;;5014769;28;20664;-70
2022/07/29 01:43:53;;;;;;;3.88;0.50;;;15.20;99.90;;;;;;5015463;28;20396;-70
2022/07/29 01:46:31;;;;;;;3.22;0.45;;;15.20;99.90;;;;;;5013469;28;20053;-69
2022/07/29 01:49:11;;;;;;;3.90;0.47;;;15.20;99.90;;;;;;5017198;28;20898;-69
2022/07/29 01:51:52;;;;;;;1.25;0.40;;;15.20;99.90;;;;;;5014089;28;20159;-71
2022/07/29 01:54:34;;;;;;;2.15;0.43;;;15.10;99.90;;;;;;5016629;28;20707;-71
2022/07/29 01:57:01;;;;;;;3.15;0.50;;;15.10;99.90;;;;;;5014240;28;20370;-71
2022/07/29 01:59:29;;;;;;;2.25;0.57;;;15.20;99.90;;;;;;5025628;28;20433;-72
2022/07/29 02:01:58;;;;;;;3.30;0.40;;;15.10;99.90;;;;;;5015557;28;20624;-71
2022/07/29 02:04:26;;;;;;;6.80;0.40;;;15.10;99.90;;;;;;5015917;28;20092;-71
2022/07/29 02:06:54;;;;;;;4.95;0.47;;;15.20;99.90;;;;;;5016566;28;20049;-71
2022/07/29 02:09:21;;;;;;;3.53;0.57;;;15.10;99.90;;;;;;5029011;28;20124;-69
2022/07/29 02:11:53;;;;;;;3.42;0.40;;;15.20;99.90;;;;;;5015354;28;20498;-72
2022/07/29 02:14:21;;;;;;;4.55;0.40;;;15.20;99.90;;;;;;5016509;28;20106;-69
2022/07/29 02:16:51;;;;;;;2.08;0.40;;;15.20;99.90;;;;;;5016462;28;20855;-70
2022/07/29 02:19:19;;;;;;;2.88;0.50;;;15.20;99.90;;;;;;5017387;28;20061;-71
2022/07/29 02:21:46;;;;;;;2.35;0.30;;;15.20;99.90;;;;;;5017859;28;20560;-71
2022/07/29 02:24:13;;;;;;;3.60;0.45;;;15.20;99.90;;;;;;5014840;28;20041;-70
2022/07/29 02:26:42;;;;;;;4.30;1.00;;;15.20;99.90;;;;;;5017395;28;20175;-70
2022/07/29 02:29:11;;;;;;;2.88;0.60;;;15.20;99.90;;;;;;5017522;28;20053;-70
2022/07/29 02:31:38;;;;;;;7.38;0.65;;;15.20;99.90;;;;;;5019398;28;20072;-70
2022/07/29 02:34:08;;;;;;;7.75;0.88;;;15.20;99.90;;;;;;5016709;28;20045;-70
2022/07/29 02:36:34;;;;;;;5.00;0.85;;;15.20;99.90;;;;;;5014747;28;20621;-69
2022/07/29 02:39:01;;;;;;;4.55;0.40;;;15.20;99.90;;;;;;5016612;28;20689;-69
2022/07/29 02:41:37;;;;;;;6.18;0.50;;;15.20;99.90;;;;;;5013438;28;21144;-69
2022/07/29 02:44:14;;;;;;;2.45;0.60;;;15.20;99.90;;;;;;5019053;28;20048;-70
2022/07/29 02:46:46;;;;;;;5.63;0.52;;;15.20;99.90;;;;;;5015996;28;20037;-69
2022/07/29 02:49:20;;;;;;;5.63;0.50;;;15.20;99.90;;;;;;5015284;28;20077;-71
2022/07/29 02:51:52;;;;;;;3.25;0.50;;;15.20;99.90;;;;;;5011893;28;20052;-71
2022/07/29 02:54:27;;;;;;;5.53;0.52;;;15.20;99.90;;;;;;5014917;28;20064;-71
2022/07/29 02:56:57;;;;;;;3.47;0.55;;;15.10;99.90;;;;;;5014308;28;20099;-71
2022/07/29 02:59:26;;;;;;;3.53;0.52;;;15.10;99.90;;;;;;5007835;28;20055;-70
2022/07/29 03:01:53;;;;;;;3.28;0.52;;;15.10;99.90;;;;;;5014938;28;20661;-71
2022/07/29 03:04:22;;;;;;;5.75;0.70;;;15.10;99.90;;;;;;5013650;28;20152;-70
2022/07/29 03:06:49;;;;;;;2.05;0.45;;;15.10;99.90;;;;;;5013473;28;20067;-70
2022/07/29 03:09:15;;;;;;;2.97;0.60;;;15.10;99.90;;;;;;5013234;28;20454;-69
2022/07/29 03:11:44;;;;;;;3.72;0.50;;;15.10;99.90;;;;;;5013551;28;20579;-69
2022/07/29 03:14:10;;;;;;;3.67;0.50;;;15.10;99.90;;;;;;5025508;28;20052;-71
2022/07/29 03:16:36;;;;;;;3.55;0.60;;;15.10;99.90;;;;;;5014113;28;20785;-70
2022/07/29 03:19:03;;;;;;;3.45;0.40;;;15.10;99.90;;;;;;5015038;28;20116;-70
2022/07/29 03:21:30;;;;;;;3.78;0.60;;;15.10;99.90;;;;;;5012846;28;20106;-71
2022/07/29 03:23:56;;;;;;;1.75;0.40;;;15.10;99.90;;;;;;5012144;28;20048;-70
2022/07/29 03:26:21;;;;;;;2.05;0.50;;;15.10;99.90;;;;;;5011430;28;20094;-71
2022/07/29 03:28:47;;;;;;;4.03;0.50;;;15.10;99.90;;;;;;4996564;28;20543;-75
2022/07/29 03:31:13;;;;;;;3.20;0.65;;;15.10;99.90;;;;;;5013436;28;20049;-70
2022/07/29 03:33:39;;;;;;;2.50;0.50;;;15.10;99.90;;;;;;5012399;28;20063;-70
2022/07/29 03:36:04;;;;;;;4.63;0.50;;;15.10;99.90;;;;;;5013963;28;20068;-73
2022/07/29 03:38:33;;;;;;;2.40;0.52;;;15.10;99.90;;;;;;5012552;28;20048;-70
2022/07/29 03:41:04;;;;;;;2.35;0.40;;;15.10;99.90;;;;;;5013207;28;20135;-70
2022/07/29 03:43:34;;;;;;;3.78;0.60;;;15.10;99.90;;;;;;5013711;28;20363;-70
2022/07/29 03:46:01;;;;;;;4.28;0.60;;;15.10;99.90;;;;;;5012096;28;20131;-70
2022/07/29 03:48:30;;;;;;;3.90;0.50;;;15.10;99.90;;;;;;5013038;28;20377;-72
2022/07/29 03:50:56;;;;;;;3.33;0.40;;;15.10;99.90;;;;;;5017654;28;20064;-71
2022/07/29 03:53:23;;;;;;;2.92;0.47;;;15.10;99.90;;;;;;5013270;28;20045;-71
2022/07/29 03:55:53;;;;;;;4.50;0.50;;;15.10;99.90;;;;;;5015600;28;20520;-71
2022/07/29 03:58:19;;;;;;;7.30;0.52;;;15.10;99.90;;;;;;5014540;28;20041;-70
2022/07/29 04:00:46;;;;;;;5.07;0.57;;;15.10;99.90;;;;;;5015521;28;20087;-70
2022/07/29 04:03:12;;;;;;;5.93;0.60;;;15.00;99.90;;;;;;5015277;28;20060;-70
2022/07/29 04:05:38;;;;;;;2.47;0.60;;;15.00;99.90;;;;;;5013624;28;20720;-71
2022/07/29 04:08:04;;;;;;;4.60;0.73;;;15.10;99.90;;;;;;5012154;28;20041;-72
2022/07/29 04:10:30;;;;;;;5.35;0.60;;;15.00;99.90;;;;;;5007450;28;20052;-72
2022/07/29 04:12:56;;;;;;;4.93;0.65;;;15.10;99.90;;;;;;5014918;28;20057;-70
2022/07/29 04:15:22;;;;;;;4.20;0.63;;;15.10;99.90;;;;;;5017214;28;20053;-69
2022/07/29 04:17:48;;;;;;;3.63;0.52;;;15.00;99.90;;;;;;5015164;28;20518;-70
2022/07/29 04:20:14;;;;;;;4.95;0.50;;;15.10;99.90;;;;;;5017388;28;20128;-70
2022/07/29 04:22:40;;;;;;;2.97;0.60;;;15.10;99.90;;;;;;5015023;28;20786;-69
2022/07/29 04:25:06;;;;;;;3.25;0.68;;;15.00;99.90;;;;;;5014778;28;20129;-71
2022/07/29 04:27:32;;;;;;;4.72;0.70;;;15.10;99.90;;;;;;5014788;28;20494;-72
2022/07/29 04:29:58;;;;;;;2.85;0.68;;;15.00;99.90;;;;;;5014821;28;20049;-70
2022/07/29 04:32:25;;;;;;;2.75;0.50;;;15.10;99.90;;;;;;5014077;28;20045;-72
2022/07/29 04:34:50;;;;;;;5.07;0.52;;;15.10;99.90;;;;;;5017119;28;20107;-72
2022/07/29 04:37:16;;;;;;;4.97;0.60;;;15.10;99.90;;;;;;5014399;28;20473;-71
2022/07/29 04:39:42;;;;;;;3.58;0.60;;;15.10;99.90;;;;;;5012476;28;20717;-73
2022/07/29 04:42:07;;;;;;;2.22;0.57;;;15.10;99.90;;;;;;5013831;28;20758;-71
2022/07/29 04:44:33;;;;;;;4.97;0.50;;;15.10;99.90;;;;;;5016002;28;20092;-71
2022/07/29 04:46:59;;;;;;;4.93;0.80;;;15.20;99.90;;;;;;5013472;28;20085;-71
2022/07/29 04:49:25;;;;;;;4.32;0.82;;;15.10;99.90;;;;;;5009971;28;20072;-71
2022/07/29 04:51:50;;;;;;;3.85;0.60;;;15.20;99.90;;;;;;5012537;28;20061;-70
2022/07/29 04:54:16;;;;;;;3.47;0.50;;;15.20;99.90;;;;;;5016821;28;20052;-70
2022/07/29 04:56:42;;;;;;;4.28;0.60;;;15.20;99.90;;;;;;5013690;28;20109;-70
2022/07/29 04:59:08;;;;;;;3.63;0.40;;;15.30;99.90;;;;;;5013048;28;20041;-70
2022/07/29 05:01:34;;;;;;;4.03;0.80;;;15.30;99.90;;;;;;5013305;28;20045;-72
2022/07/29 05:04:00;;;;;;;3.17;0.50;;;15.30;99.90;;;;;;4996951;28;20041;-70
2022/07/29 05:06:25;;;;;;;3.58;0.88;;;15.40;99.90;;;;;;5012986;28;20036;-71
2022/07/29 05:08:51;;;;;;;2.50;0.52;;;15.40;99.90;;;;;;5011435;28;20057;-70
2022/07/29 05:11:17;;;;;;;4.75;0.50;;;15.40;99.90;;;;;;5011106;28;20107;-71
2022/07/29 05:13:42;;;;;;;4.03;0.60;;;15.50;99.90;;;;;;5013581;28;20042;-71
2022/07/29 05:16:08;;;;;;;3.88;0.52;;;15.50;99.90;;;;;;5015728;28;20045;-73
2022/07/29 05:18:34;;;;;;;2.40;0.65;;;15.50;99.90;;;;;;5013669;28;20376;-71
2022/07/29 05:21:00;;;;;;;3.78;0.55;;;15.50;99.90;;;;;;4996846;28;20049;-70
2022/07/29 05:23:25;;;;;;;5.18;1.10;;;15.50;99.90;;;;;;5011035;28;20603;-71
2022/07/29 05:25:51;;;;;;;4.40;0.50;;;15.50;99.90;;;;;;5015746;28;20070;-69
2022/07/29 05:28:17;;;;;;;4.25;0.50;;;15.60;99.90;;;;;;5015703;28;20044;-70
2022/07/29 05:30:44;;;;;;;5.45;0.70;;;15.50;99.90;;;;;;5016022;28;20347;-70
2022/07/29 05:33:10;;;;;;;6.93;1.02;;;15.60;99.90;;;;;;5016324;28;20080;-70
2022/07/29 05:35:36;;;;;;;4.80;0.60;;;15.60;99.90;;;;;;5033219;28;20090;-72
2022/07/29 05:38:03;;;;;;;4.07;0.60;;;15.60;99.90;;;;;;5002613;28;20052;-70
2022/07/29 05:40:29;;;;;;;4.47;0.40;;;15.60;99.90;;;;;;5033004;28;20045;-70
2022/07/29 05:42:55;;;;;;;3.17;0.50;;;15.70;99.90;;;;;;5017665;28;20049;-70
2022/07/29 05:45:21;;;;;;;4.68;0.70;;;15.70;99.90;;;;;;5018391;28;20590;-69
2022/07/29 05:47:46;;;;;;;6.38;0.57;;;15.70;99.90;;;;;;5016009;28;20053;-71
2022/07/29 05:50:12;;;;;;;3.92;0.70;;;15.70;99.90;;;;;;5015112;28;20033;-72
2022/07/29 05:52:38;;;;;;;4.80;0.50;;;15.80;99.90;;;;;;5014443;28;20049;-72
2022/07/29 05:55:05;;;;;;;6.07;0.68;;;15.80;99.90;;;;;;5017919;28;20149;-73
2022/07/29 05:57:31;;;;;;;2.78;0.50;;;15.90;99.90;;;;;;5017533;28;20500;-70
2022/07/29 05:59:57;;;;;;;3.80;0.70;;;15.90;99.90;;;;;;5014623;28;20035;-72
2022/07/29 06:02:23;;;;;;;4.93;0.77;;;16.00;99.90;;;;;;5008826;28;20053;-73
2022/07/29 06:04:49;;;;;;;3.95;0.60;;;16.00;99.90;;;;;;5008929;28;20049;-72
2022/07/29 06:07:15;;;;;;;3.92;0.82;;;16.10;99.90;;;;;;5031459;28;20095;-71
2022/07/29 06:09:41;;;;;;;1.95;0.60;;;16.20;99.90;;;;;;5016113;28;20041;-70
2022/07/29 06:12:08;;;;;;;2.47;0.47;;;16.30;99.90;;;;;;5014339;28;20052;-72
2022/07/29 06:14:33;;;;;;;3.47;0.60;;;16.40;99.90;;;;;;5014446;28;20057;-72
2022/07/29 06:16:59;;;;;;;3.28;0.60;;;16.50;99.90;;;;;;4998863;28;20508;-70
2022/07/29 06:19:25;;;;;;;4.72;0.70;;;16.50;99.90;;;;;;5012948;28;20033;-70
2022/07/29 06:21:51;;;;;;;2.95;0.50;;;16.70;99.90;;;;;;5013386;28;20487;-71
2022/07/29 06:24:17;;;;;;;4.45;0.60;;;16.90;99.90;;;;;;5014266;28;20046;-70
2022/07/29 06:26:43;;;;;;;3.72;0.60;;;17.00;99.90;;;;;;5013493;28;20135;-70
2022/07/29 06:29:12;;;;;;;4.45;0.60;;;17.00;99.90;;;;;;5015305;28;20581;-72
2022/07/29 06:31:38;;;;;;;2.97;0.65;;;17.10;99.90;;;;;;5014816;28;20041;-70
2022/07/29 06:34:04;;;;;;;4.28;0.65;;;17.20;99.90;;;;;;5016260;28;20059;-69
2022/07/29 06:36:30;;;;;;;5.25;0.57;;;17.30;99.90;;;;;;5014485;28;20335;-69
2022/07/29 06:38:56;;;;;;;3.45;0.55;;;17.40;99.90;;;;;;5014809;28;20127;-71
2022/07/29 06:41:22;;;;;;;3.88;0.70;;;17.50;99.90;;;;;;5018258;28;20037;-68
2022/07/29 06:43:49;;;;;;;2.63;0.80;;;17.60;99.90;;;;;;5018211;28;20559;-70
2022/07/29 06:46:19;;;;;;;3.70;0.70;;;17.60;99.90;;;;;;5011741;28;20447;-69
2022/07/29 06:48:45;;;;;;;4.95;0.73;;;17.60;99.90;;;;;;5013772;28;20610;-70
2022/07/29 06:51:11;;;;;;;5.13;0.70;;;17.60;99.90;;;;;;5015642;28;20045;-72
2022/07/29 06:53:38;;;;;;;3.25;0.40;;;17.50;99.90;;;;;;5013199;28;20057;-69
2022/07/29 06:56:05;;;;;;;3.95;0.63;;;17.50;99.90;;;;;;5016193;28;20046;-71
2022/07/29 06:58:31;;;;;;;3.13;0.90;;;17.60;99.90;;;;;;5014108;28;20041;-70
2022/07/29 07:01:00;;;;;;;4.75;0.70;;;17.60;99.90;;;;;;5014078;28;20040;-70
2022/07/29 07:03:26;;;;;;;3.97;0.50;;;17.70;99.90;;;;;;5013152;28;20100;-69
2022/07/29 07:05:53;;;;;;;5.07;0.85;;;17.70;99.90;;;;;;5013776;28;20100;-70
2022/07/29 07:08:19;;;;;;;8.82;0.80;;;17.60;99.90;;;;;;5013785;28;20760;-68
2022/07/29 07:10:45;;;;;;;3.95;1.15;;;17.70;99.90;;;;;;5008346;28;20057;-70
2022/07/29 07:13:11;;;;;;;3.33;0.50;;;17.80;99.90;;;;;;5011950;28;20053;-70
2022/07/29 07:15:37;;;;;;;5.22;0.60;;;17.80;99.90;;;;;;5025237;28;20041;-70
2022/07/29 07:18:04;;;;;;;2.63;0.68;;;17.90;99.90;;;;;;5009171;28;20821;-71
2022/07/29 07:20:30;;;;;;;2.13;0.60;;;17.90;99.90;;;;;;5025953;28;20526;-69
2022/07/29 07:22:55;;;;;;;4.25;0.60;;;17.90;99.90;;;;;;5017367;28;20052;-70
2022/07/29 07:25:21;;;;;;;4.70;0.73;;;18.00;99.90;;;;;;5014619;28;20049;-70
2022/07/29 07:27:47;;;;;;;2.75;0.70;;;18.00;99.90;;;;;;5026807;28;20041;-74
2022/07/29 07:30:13;;;;;;;3.42;0.65;;;18.00;99.90;;;;;;5024367;28;20128;-70
2022/07/29 07:32:39;;;;;;;7.15;0.70;;;18.10;99.90;;;;;;5013228;28;20045;-71
2022/07/29 07:35:07;;;;;;;5.25;0.70;;;18.10;99.90;;;;;;5013017;28;20534;-71
2022/07/29 07:37:33;;;;;;;6.00;0.82;;;18.20;99.90;;;;;;4995072;28;20119;-71
2022/07/29 07:39:58;;;;;;;5.47;0.65;;;18.20;99.90;;;;;;5012409;28;20041;-70
2022/07/29 07:42:24;;;;;;;7.20;0.70;;;18.30;99.90;;;;;;5012349;28;20918;-73
2022/07/29 07:44:50;;;;;;;3.20;0.65;;;18.40;99.90;;;;;;5012444;28;20056;-71
2022/07/29 07:47:19;;;;;;;3.28;0.63;;;18.50;99.90;;;;;;5013815;28;20045;-70
2022/07/29 07:49:46;;;;;;;2.30;0.80;;;18.50;99.90;;;;;;5014205;28;20049;-70
2022/07/29 07:52:13;;;;;;;5.05;0.70;;;18.50;99.90;;;;;;5016429;28;20046;-71
2022/07/29 07:54:39;;;;;;;7.22;1.10;;;18.60;99.90;;;;;;5012076;28;20045;-71
2022/07/29 07:57:04;;;;;;;4.30;0.60;;;18.60;99.90;;;;;;5034497;28;20519;-69
2022/07/29 07:59:30;;;;;;;3.47;0.50;;;18.70;99.90;;;;;;5011810;28;20050;-71
2022/07/29 08:01:56;;;;;;;2.88;0.68;;;18.80;99.90;;;;;;5012965;28;20057;-70
2022/07/29 08:04:22;;;;;;;6.25;1.13;;;18.80;99.90;;;;;;5029200;28;20042;-70
2022/07/29 08:06:49;;;;;;;2.70;0.68;;;18.90;99.90;;;;;;5013401;28;20193;-73
2022/07/29 08:09:15;;;;;;;3.33;0.68;;;19.10;99.90;;;;;;5016452;28;20127;-69
2022/07/29 08:11:41;;;;;;;3.45;0.75;;;19.10;99.90;;;;;;5022489;28;20055;-70
2022/07/29 08:14:06;;;;;;;3.85;0.50;;;19.20;99.90;;;;;;5014149;28;20164;-70
2022/07/29 08:16:32;;;;;;;3.05;0.60;;;19.30;99.90;;;;;;5026834;28;20087;-72
2022/07/29 08:18:58;;;;;;;4.30;0.73;;;19.40;99.90;;;;;;5015512;28;20072;-71
2022/07/29 08:21:24;;;;;;;4.63;0.70;;;19.50;99.90;;;;;;5015853;28;20045;-72
2022/07/29 08:23:52;;;;;;;3.20;0.60;;;19.60;99.90;;;;;;5023349;28;20045;-70
2022/07/29 08:26:22;;;;;;;6.68;0.85;;;19.70;99.90;;;;;;5023286;28;20605;-70
2022/07/29 08:28:50;;;;;;;5.05;0.80;;;19.80;99.90;;;;;;5013369;28;20056;-68
2022/07/29 08:31:16;;;;;;;3.53;0.55;;;19.90;99.90;;;;;;5016124;28;20076;-71
2022/07/29 08:33:42;;;;;;;3.00;0.60;;;20.10;99.90;;;;;;4996610;28;20548;-71
2022/07/29 08:36:08;;;;;;;3.72;0.75;;;20.20;99.90;;;;;;5016064;28;20037;-70
2022/07/29 08:38:34;;;;;;;3.75;0.52;;;20.20;99.90;;;;;;5014084;28;20194;-70
2022/07/29 08:41:03;;;;;;;3.70;0.70;;;20.20;99.90;;;;;;5012088;28;20457;-70
2022/07/29 08:43:29;;;;;;;4.68;0.90;;;20.30;99.90;;;;;;5015595;28;20076;-71
2022/07/29 08:45:55;;;;;;;4.30;0.70;;;20.40;99.90;;;;;;5011821;28;20508;-70
2022/07/29 08:48:22;;;;;;;5.30;1.05;;;20.60;99.90;;;;;;5011843;28;20330;-70
2022/07/29 08:50:52;;;;;;;5.22;0.82;;;20.60;99.90;;;;;;5015640;28;20045;-70
2022/07/29 08:53:18;;;;;;;4.72;0.63;;;20.70;99.90;;;;;;5012372;28;20053;-69
2022/07/29 08:55:46;;;;;;;3.00;0.60;;;20.90;99.90;;;;;;5011204;28;20472;-68
2022/07/29 08:58:14;;;;;;;3.60;0.60;;;21.10;99.90;;;;;;5012629;28;20041;-70
2022/07/29 09:00:50;;;;;;;4.95;0.82;;;21.00;99.90;;;;;;5015032;28;20053;-71
2022/07/29 09:03:19;;;;;;;5.65;0.80;;;21.20;99.90;;;;;;5017453;28;20742;-69
2022/07/29 09:05:46;;;;;;;4.40;0.88;;;21.30;99.90;;;;;;5016833;28;20053;-70
2022/07/29 09:08:17;;;;;;;3.88;0.68;;;21.40;99.90;;;;;;5017199;28;20033;-70
2022/07/29 09:10:43;;;;;;;5.50;0.85;;;21.40;99.90;;;;;;5015697;28;20615;-69
2022/07/29 09:13:09;;;;;;;3.38;0.70;;;21.30;99.90;;;;;;5015483;28;20140;-70
2022/07/29 09:15:35;;;;;;;2.15;0.60;;;21.20;99.90;;;;;;5016624;28;20240;-70
2022/07/29 09:18:01;;;;;;;3.00;0.82;;;21.10;99.90;;;;;;5014203;28;20049;-71
2022/07/29 09:21:57;;;;;;;5.40;0.82;;;21.00;99.90;;;;;;5015815;28;20061;-71
2022/07/29 09:23:14;;;;;;;5.40;0.80;;;20.90;99.90;;;;;;5016808;28;20045;-73
2022/07/29 09:25:40;;;;;;;4.88;0.73;;;20.80;99.90;;;;;;5016221;28;20132;-71
2022/07/29 09:28:07;;;;;;;4.93;0.80;;;20.90;99.90;;;;;;5015612;28;20053;-72
2022/07/29 09:30:33;;;;;;;3.30;0.70;;;20.80;99.90;;;;;;5016672;28;20060;-73
2022/07/29 09:33:02;;;;;;;5.47;0.88;;;20.60;99.90;;;;;;5015052;28;20484;-71
2022/07/29 09:35:29;;;;;;;4.70;0.90;;;20.50;99.90;;;;;;5014616;28;20102;-73
2022/07/29 09:37:55;;;;;;;3.25;1.00;;;20.40;99.90;;;;;;5016764;28;20071;-71
2022/07/29 09:40:23;;;;;;;3.08;1.00;;;20.30;99.90;;;;;;5013933;28;20048;-70
2022/07/29 09:42:50;;;;;;;6.13;0.90;;;20.20;99.90;;;;;;5015483;28;20694;-73
2022/07/29 09:45:32;;;;;;;4.95;0.95;;;20.00;99.90;;;;;;5017734;28;20059;-69
2022/07/29 09:48:02;;;;;;;4.90;1.03;;;20.00;99.90;;;;;;5014813;28;20145;-69
2022/07/29 09:50:44;;;;;;;4.10;0.90;;;20.00;99.90;;;;;;5016182;28;20321;-71
2022/07/29 09:53:10;;;;;;;5.18;1.38;;;20.00;99.90;;;;;;5016569;28;20040;-73
2022/07/29 09:55:51;;;;;;;3.08;0.80;;;20.00;99.90;;;;;;5010794;28;20045;-70
2022/07/29 09:58:19;;;;;;;5.20;1.10;;;20.10;99.90;;;;;;5015006;28;20048;-69
2022/07/29 10:00:46;;;;;;;5.82;1.00;;;20.10;99.90;;;;;;5017743;28;20124;-72
2022/07/29 10:03:13;;;;;;;3.00;1.10;;;20.10;99.90;;;;;;5035379;28;20055;-72
2022/07/29 10:05:40;;;;;;;2.90;1.00;;;20.20;99.90;;;;;;5017775;28;20037;-73
2022/07/29 10:08:07;;;;;;;8.15;1.20;;;20.40;99.90;;;;;;5013994;28;20136;-72
2022/07/29 10:10:41;;;;;;;6.13;1.10;;;20.50;99.90;;;;;;5014366;28;20132;-72
2022/07/29 10:13:12;;;;;;;5.15;1.25;;;20.60;99.90;;;;;;5014536;28;20406;-71
2022/07/29 10:15:42;;;;;;;5.47;0.80;;;20.70;99.90;;;;;;5013710;28;20045;-73
2022/07/29 10:18:09;;;;;;;5.00;0.88;;;20.90;99.90;;;;;;5015729;28;20049;-71
2022/07/29 10:20:35;;;;;;;5.35;0.88;;;21.00;99.90;;;;;;5002081;28;20341;-72
2022/07/29 10:23:01;;;;;;;6.60;0.98;;;21.10;99.90;;;;;;5025220;28;20055;-71
2022/07/29 10:25:27;;;;;;;6.45;1.25;;;21.20;99.90;;;;;;5008562;28;20312;-72
2022/07/29 10:27:54;;;;;;;7.53;1.15;;;21.40;99.90;;;;;;5015223;28;20037;-72
2022/07/29 10:30:21;;;;;;;4.13;0.73;;;21.50;99.90;;;;;;5013496;28;20044;-73
2022/07/29 10:32:53;;;;;;;2.97;1.15;;;21.60;99.90;;;;;;5012938;28;20085;-71
2022/07/29 10:35:32;;;;;;;3.30;0.80;;;21.70;99.90;;;;;;5015127;28;20050;-72
2022/07/29 10:38:31;;;;;;;6.35;1.13;;;21.60;99.90;;;;;;5015660;28;20448;-72
2022/07/29 10:43:48;;;;;;;3.63;1.02;;;21.60;99.90;;;;;;5028320;28;20053;-70
2022/07/29 10:46:15;;;;;;;7.07;1.23;;;21.50;99.90;;;;;;5014099;28;20762;-71
2022/07/29 10:49:10;;;;;;;3.08;0.90;;;21.50;99.90;;;;;;5022253;28;20045;-70
2022/07/29 10:51:57;;;;;;;4.63;0.60;;;21.40;99.90;;;;;;5013817;28;20045;-70
2022/07/29 10:54:35;;;;;;;5.25;1.00;;;21.50;99.90;;;;;;5021931;28;20041;-73
2022/07/29 10:57:31;;;;;;;3.10;0.88;;;21.60;99.90;;;;;;5019243;28;20045;-71
2022/07/29 11:00:13;;;;;;;5.05;0.90;;;21.60;99.90;;;;;;5003629;28;20045;-72
2022/07/29 11:02:45;;;;;;;3.97;0.75;;;21.70;99.90;;;;;;5009657;28;20083;-70
2022/07/29 11:05:12;;;;;;;4.35;0.77;;;21.70;99.90;;;;;;5062394;28;20112;-72
2022/07/29 11:07:40;;;;;;;2.70;0.52;;;21.70;99.90;;;;;;5039599;28;20036;-72
2022/07/29 11:10:12;;;;;;;4.78;0.70;;;21.80;99.90;;;;;;5037774;28;20462;-71
2022/07/29 11:12:37;;;;;;;3.20;0.80;;;21.90;99.90;;;;;;5060783;28;20455;-70
2022/07/29 11:15:08;;;;;;;5.18;0.80;;;21.80;99.90;;;;;;5058809;28;20050;-71
2022/07/29 11:17:57;;;;;;;3.42;0.70;;;21.80;99.90;;;;;;5034550;28;20519;-71
2022/07/29 11:20:44;;;;;;;5.07;0.80;;;21.90;99.90;;;;;;5027779;28;20079;-71
2022/07/29 11:23:28;;;;;;;3.20;0.60;;;21.90;99.90;;;;;;5033891;28;20115;-71
2022/07/29 11:26:13;;;;;;;5.13;0.63;;;22.00;99.90;;;;;;5055650;28;20048;-70
2022/07/29 11:29:17;;;;;;;6.80;1.05;;;22.00;99.90;;;;;;5034337;28;20072;-70
2022/07/29 11:31:54;;;;;;;6.32;0.82;;;22.10;99.90;;;;;;5050262;28;20048;-71
2022/07/29 11:34:32;;;;;;;6.22;2.88;;;22.20;99.90;;;;;;5036623;28;20051;-73
2022/07/29 11:37:10;;;;;;;4.50;0.90;;;22.30;99.90;;;;;;5040643;28;20106;-73
2022/07/29 11:39:38;;;;;;;4.32;0.90;;;22.40;99.90;;;;;;5058035;28;20064;-71
2022/07/29 11:42:24;;;;;;;2.78;0.82;;;22.30;99.90;;;;;;5053899;28;20105;-74
2022/07/29 11:45:17;;;;;;;4.15;1.00;;;22.40;99.90;;;;;;5041645;28;20040;-70
2022/07/29 11:48:04;;;;;;;3.40;0.80;;;22.40;99.90;;;;;;5057933;28;20055;-71
2022/07/29 11:50:35;;;;;;;4.20;1.05;;;22.40;99.90;;;;;;5040826;28;20560;-70
2022/07/29 11:53:09;;;;;;;2.17;0.68;;;22.60;99.90;;;;;;5063597;28;20093;-71
2022/07/29 11:55:38;;;;;;;3.95;0.80;;;22.70;99.90;;;;;;5056126;28;20062;-71
2022/07/29 11:58:04;;;;;;;3.53;1.13;;;22.70;99.90;;;;;;5052071;28;20040;-71
2022/07/29 12:00:32;;;;;;;4.40;0.95;;;22.90;99.90;;;;;;5039995;28;20074;-72
2022/07/29 12:03:02;;;;;;;5.25;0.80;;;23.00;99.90;;;;;;5051209;28;20090;-71
2022/07/29 12:05:54;;;;;;;5.88;1.00;;;23.10;99.90;;;;;;5059674;28;20083;-72
2022/07/29 12:08:25;;;;;;;6.32;1.10;;;23.20;99.90;;;;;;5039137;28;20048;-72
2022/07/29 12:10:51;;;;;;;5.28;0.90;;;23.30;99.90;;;;;;5054783;28;20052;-70
2022/07/29 12:13:19;;;;;;;5.50;1.15;;;23.30;99.90;;;;;;5048720;28;20079;-71
2022/07/29 12:15:57;;;;;;;4.95;1.20;;;23.50;99.90;;;;;;5015088;28;20059;-71
2022/07/29 12:18:23;;;;;;;3.70;0.80;;;23.60;99.90;;;;;;5031083;28;20397;-71
2022/07/29 12:20:55;;;;;;;5.97;0.80;;;23.70;99.90;;;;;;5067769;28;20935;-73
2022/07/29 12:23:21;;;;;;;2.97;0.68;;;23.80;99.90;;;;;;5058428;28;20037;-72
2022/07/29 12:25:47;;;;;;;4.22;0.80;;;23.80;99.90;;;;;;5035127;28;20048;-71
2022/07/29 12:28:18;;;;;;;3.15;0.60;;;23.70;99.90;;;;;;5052669;28;20763;-72
2022/07/29 12:30:48;;;;;;;4.03;0.70;;;23.70;99.90;;;;;;5056150;28;20049;-72
2022/07/29 12:33:23;;;;;;;4.97;0.60;;;23.90;99.90;;;;;;5030210;28;20044;-72
2022/07/29 12:35:55;;;;;;;4.53;0.80;;;24.00;99.90;;;;;;5030837;28;20056;-71
2022/07/29 12:38:22;;;;;;;5.32;0.75;;;24.10;99.90;;;;;;5050539;28;20056;-73
2022/07/29 12:40:49;;;;;;;3.10;0.60;;;24.10;99.90;;;;;;5041747;28;20052;-70
2022/07/29 12:43:16;;;;;;;2.45;0.65;;;24.00;99.90;;;;;;5014724;28;20051;-71
2022/07/29 12:45:51;;;;;;;3.92;0.55;;;24.10;99.90;;;;;;5052408;28;20054;-72
2022/07/29 12:48:17;;;;;;;3.50;0.60;;;24.30;99.90;;;;;;5061306;28;20044;-72
2022/07/29 12:51:01;;;;;;;3.03;0.70;;;24.20;99.90;;;;;;5031244;28;20509;-73
2022/07/29 12:53:28;;;;;;;4.28;0.70;;;24.10;99.90;;;;;;5028173;28;20048;-72
2022/07/29 12:55:56;;;;;;;3.85;0.70;;;24.10;99.90;;;;;;5068710;28;20048;-72
2022/07/29 12:58:39;;;;;;;3.90;0.63;;;24.10;99.90;;;;;;5066137;28;20052;-72
2022/07/29 13:01:06;;;;;;;5.38;0.93;;;24.10;99.90;;;;;;5054997;28;20044;-73